McNary Field
KSLE : rendu visible

Aérodrome :











RETROUVEZ-NOUS SUR...

 
LOGIN :

S'inscrire | Disclaimer

   EN    FR    IT 

 









Légende :    VFR   VFR Marginal   IFR   IFR Intensif   IFR Très Intensif
Visi : 
Plafond : 
>= 8 km
>= 3000ft
5 à 8 km
1000 à 3000 ft
1500m à 5 km
500 à 1000 ft
800 à 1500m
200 à 500 ft
< 800m
< 200 ft
Symboles :   Orages  Brouillard  Fortes neiges  Fortes précipitations  Vent > 20 kt






- Altitude de l'aérodrome : 214 ft


KSLE - McNary Field

DERNIER METAR :
  • 171156Z AUTO 13004KT 10SM CLR 08/07 A3017 RMK AO2 SLP216 T00780072 10100 20078 56017

METARs EXPIRÉS :
  • 171056Z AUTO 18007KT 10SM FEW100 10/08 A3018 RMK AO2 SLP220 T01000083
  • 170956Z AUTO 13005KT 7SM BKN060 OVC110 08/08 A3019 RMK AO2 SLP224 T00830078

TAF KSLE
Valide du 17 à 12h jusqu'au 18 à 12h UTC


171147Z 1712/1812 18007KT P6SM OVC100
FM171700 15007KT P6SM -RA SCT025 OVC045
FM172100 17008KT 6SM -RA BR SCT015 OVC030
FM180100 VRB03KT P6SM SCT025 OVC040
FM180600 13002KT 2SM BR OVC004



MET'MAP, la Météo Aéronautique d'un coup d'oeil ! - Copyright ORBIFLY Décembre 2007 - Disclaimer

ORBIFLY MET'MAP TEAM :

Programmation & Développement : Alexandra Zaïnal
Conception & Développement : Baudouin d'Aumeries
Co-Programmation & Développement : Marc-Olivier Méhu
Soutien technique & logistique : Manuel Goepfert

Contact : metmap@orbifly.com




SOURCES & CREDITS :

   NOAA       Earth
Advisory